Time;durP1;ratioP1;P1;durP2;ratioP2;P2;SDS_P1;SDS_P2;PMS_P1;PMS_P2;Temp;Humidity;BMP_temperature;BMP_pressure;BME280_temperature;BME280_humidity;BME280_pressure;Samples;Min_cycle;Max_cycle;Signal;HPM_P1;HPM_P2
2023/06/19 00:01:34;;;;;;;2.27;1.80;;;;;;;;;;5084977;27;89486;-54
2023/06/19 00:04:04;;;;;;;4.83;1.70;;;;;;;;;;5085281;27;88870;-53
2023/06/19 00:06:34;;;;;;;1.90;1.70;;;;;;;;;;5084340;27;87650;-52
2023/06/19 00:09:02;;;;;;;2.73;1.97;;;;;;;;;;5083831;27;88739;-53
2023/06/19 00:11:31;;;;;;;3.27;2.17;;;;;;;;;;5083049;27;89019;-52
2023/06/19 00:14:00;;;;;;;1.93;1.73;;;;;;;;;;5083005;27;87816;-53
2023/06/19 00:16:29;;;;;;;2.67;1.60;;;;;;;;;;5084152;27;87184;-52
2023/06/19 00:18:57;;;;;;;2.30;1.90;;;;;;;;;;5083374;27;89952;-52
2023/06/19 00:21:27;;;;;;;2.23;1.60;;;;;;;;;;5082904;27;90005;-52
2023/06/19 00:23:56;;;;;;;1.93;1.63;;;;;;;;;;5084014;27;88844;-53
2023/06/19 00:26:25;;;;;;;2.77;1.53;;;;;;;;;;5083629;27;87619;-52
2023/06/19 00:28:53;;;;;;;3.70;1.83;;;;;;;;;;5084017;27;89814;-53
2023/06/19 00:31:21;;;;;;;2.97;1.63;;;;;;;;;;5082217;27;89121;-52
2023/06/19 00:33:50;;;;;;;5.63;1.67;;;;;;;;;;5083831;27;88491;-53
2023/06/19 00:36:20;;;;;;;1.87;1.47;;;;;;;;;;5084242;27;87661;-53
2023/06/19 00:38:50;;;;;;;1.83;1.30;;;;;;;;;;5084160;27;88568;-53
2023/06/19 00:41:18;;;;;;;1.70;1.40;;;;;;;;;;5083359;27;89327;-53
2023/06/19 00:43:46;;;;;;;2.10;1.67;;;;;;;;;;5083767;27;88737;-53
2023/06/19 00:46:15;;;;;;;1.93;1.57;;;;;;;;;;5063236;27;87802;-53
2023/06/19 00:48:43;;;;;;;1.57;1.23;;;;;;;;;;5062840;27;89582;-53
2023/06/19 00:51:11;;;;;;;1.90;1.40;;;;;;;;;;5062518;27;89293;-53
2023/06/19 00:53:48;;;;;;;2.10;1.50;;;;;;;;;;5061162;27;87783;-54
2023/06/19 00:56:18;;;;;;;1.30;1.00;;;;;;;;;;5063339;27;87327;-53
2023/06/19 00:58:47;;;;;;;1.77;1.37;;;;;;;;;;5063201;27;89665;-53
2023/06/19 01:01:15;;;;;;;1.60;1.33;;;;;;;;;;5062349;27;89269;-53
2023/06/19 01:03:44;;;;;;;3.20;1.23;;;;;;;;;;5063634;27;87620;-53
2023/06/19 01:06:26;;;;;;;2.40;1.00;;;;;;;;;;5063073;27;87741;-52
2023/06/19 01:08:57;;;;;;;1.90;1.30;;;;;;;;;;5062921;27;88522;-53
2023/06/19 01:11:28;;;;;;;1.40;1.30;;;;;;;;;;5062175;27;89992;-53
2023/06/19 01:13:57;;;;;;;1.20;1.10;;;;;;;;;;5062861;27;89008;-54
2023/06/19 01:16:26;;;;;;;2.30;1.20;;;;;;;;;;5063246;27;87627;-54
2023/06/19 01:18:55;;;;;;;2.30;1.30;;;;;;;;;;5062050;27;88739;-56
2023/06/19 01:21:23;;;;;;;3.23;1.37;;;;;;;;;;5063246;27;87984;-53
2023/06/19 01:23:53;;;;;;;1.53;1.20;;;;;;;;;;5062443;27;88853;-53
2023/06/19 01:26:26;;;;;;;1.03;0.90;;;;;;;;;;5062700;27;87654;-53
2023/06/19 01:28:54;;;;;;;1.93;1.30;;;;;;;;;;5062663;27;89701;-52
2023/06/19 01:31:27;;;;;;;0.97;0.93;;;;;;;;;;5061789;27;89334;-52
2023/06/19 01:33:58;;;;;;;1.87;1.10;;;;;;;;;;5062665;27;89183;-53
2023/06/19 01:36:27;;;;;;;1.10;1.00;;;;;;;;;;5061956;27;88371;-52
2023/06/19 01:38:59;;;;;;;1.83;1.37;;;;;;;;;;5062935;27;89136;-53
2023/06/19 01:41:27;;;;;;;1.30;1.00;;;;;;;;;;5061732;27;88168;-53
2023/06/19 01:43:56;;;;;;;1.77;1.10;;;;;;;;;;5064452;27;88968;-53
2023/06/19 01:46:24;;;;;;;1.77;1.50;;;;;;;;;;5064710;27;87691;-53
2023/06/19 01:48:56;;;;;;;2.10;1.10;;;;;;;;;;5082775;27;89487;-53
2023/06/19 01:51:30;;;;;;;2.40;1.27;;;;;;;;;;5082922;27;89232;-53
2023/06/19 01:54:00;;;;;;;1.20;1.10;;;;;;;;;;5082238;27;88891;-53
2023/06/19 01:56:28;;;;;;;1.63;1.07;;;;;;;;;;5084137;27;87485;-53
2023/06/19 01:58:58;;;;;;;1.33;1.10;;;;;;;;;;5082462;27;89812;-53
2023/06/19 02:01:27;;;;;;;1.20;0.93;;;;;;;;;;5082059;27;89665;-53
2023/06/19 02:03:55;;;;;;;1.83;1.10;;;;;;;;;;5081494;27;89871;-53
2023/06/19 02:06:25;;;;;;;1.93;1.13;;;;;;;;;;5082707;27;87384;-53
2023/06/19 02:08:54;;;;;;;1.30;1.10;;;;;;;;;;5082153;27;89814;-53
2023/06/19 02:11:24;;;;;;;1.37;1.27;;;;;;;;;;5082349;27;89015;-53
2023/06/19 02:13:52;;;;;;;1.50;1.00;;;;;;;;;;5082469;27;89073;-53
2023/06/19 02:16:21;;;;;;;2.13;1.10;;;;;;;;;;5082623;27;87092;-53
2023/06/19 02:18:49;;;;;;;1.57;1.10;;;;;;;;;;5082768;27;89575;-53
2023/06/19 02:21:17;;;;;;;1.10;0.90;;;;;;;;;;5076631;27;87675;-53
2023/06/19 02:23:46;;;;;;;2.23;1.27;;;;;;;;;;5081731;27;87894;-52
2023/06/19 02:26:15;;;;;;;2.13;0.90;;;;;;;;;;5081366;27;87739;-52
2023/06/19 02:28:47;;;;;;;1.53;0.93;;;;;;;;;;5081668;27;90024;-52
2023/06/19 02:31:15;;;;;;;2.17;1.20;;;;;;;;;;5081888;27;89280;-53
2023/06/19 02:33:44;;;;;;;2.20;1.40;;;;;;;;;;5081759;27;88959;-53
2023/06/19 02:36:12;;;;;;;1.20;1.10;;;;;;;;;;5081901;27;87704;-53
2023/06/19 02:38:41;;;;;;;2.20;1.40;;;;;;;;;;5081756;27;89919;-53
2023/06/19 02:41:10;;;;;;;2.30;1.43;;;;;;;;;;5074644;27;89200;-53
2023/06/19 02:43:38;;;;;;;1.63;1.20;;;;;;;;;;5058938;27;87986;-53
2023/06/19 02:46:08;;;;;;;1.83;1.10;;;;;;;;;;5058405;27;87503;-53
2023/06/19 02:48:40;;;;;;;1.60;1.33;;;;;;;;;;5058673;27;88578;-53
2023/06/19 02:51:08;;;;;;;1.63;1.07;;;;;;;;;;5057619;27;89159;-53
2023/06/19 02:53:37;;;;;;;1.53;1.13;;;;;;;;;;5057700;27;89387;-52
2023/06/19 02:56:07;;;;;;;1.20;1.10;;;;;;;;;;5058479;27;87623;-53
2023/06/19 02:58:37;;;;;;;1.17;1.00;;;;;;;;;;5062504;27;89739;-53
2023/06/19 03:01:06;;;;;;;1.20;1.10;;;;;;;;;;5078554;27;88307;-54
2023/06/19 03:03:37;;;;;;;1.40;1.20;;;;;;;;;;5078308;27;87708;-52
2023/06/19 03:06:06;;;;;;;1.23;1.03;;;;;;;;;;5077500;27;87577;-53
2023/06/19 03:08:35;;;;;;;2.77;1.73;;;;;;;;;;5078319;27;89775;-54
2023/06/19 03:11:04;;;;;;;1.70;1.30;;;;;;;;;;5078148;27;88228;-53
2023/06/19 03:13:35;;;;;;;2.47;1.50;;;;;;;;;;5077891;27;88785;-52
2023/06/19 03:16:03;;;;;;;2.40;1.13;;;;;;;;;;5076901;27;87860;-53
2023/06/19 03:18:32;;;;;;;1.83;1.20;;;;;;;;;;5077787;27;89724;-52
2023/06/19 03:21:01;;;;;;;1.33;1.10;;;;;;;;;;5078328;27;88637;-53
2023/06/19 03:23:30;;;;;;;1.20;1.00;;;;;;;;;;5077776;27;88769;-54
2023/06/19 03:25:58;;;;;;;1.33;1.20;;;;;;;;;;5077673;27;87778;-54
2023/06/19 03:28:27;;;;;;;1.20;1.10;;;;;;;;;;5078000;27;88594;-54
2023/06/19 03:30:55;;;;;;;1.87;1.40;;;;;;;;;;5077390;27;88564;-54
2023/06/19 03:33:23;;;;;;;1.90;1.30;;;;;;;;;;5078569;27;87449;-53
2023/06/19 03:35:52;;;;;;;1.17;0.90;;;;;;;;;;5078450;27;87688;-53
2023/06/19 03:38:22;;;;;;;1.17;1.07;;;;;;;;;;5077739;27;88624;-53
2023/06/19 03:40:51;;;;;;;1.63;1.20;;;;;;;;;;5077857;27;90153;-53
2023/06/19 03:43:19;;;;;;;1.20;1.10;;;;;;;;;;5079753;27;89914;-53
2023/06/19 03:45:47;;;;;;;1.30;0.97;;;;;;;;;;5078683;27;88011;-53
2023/06/19 03:48:16;;;;;;;1.67;1.33;;;;;;;;;;5077985;27;90259;-54
2023/06/19 03:50:45;;;;;;;1.10;1.00;;;;;;;;;;5076798;27;89204;-52
2023/06/19 03:53:13;;;;;;;1.40;1.23;;;;;;;;;;5077459;27;89114;-52
2023/06/19 03:55:44;;;;;;;1.00;0.97;;;;;;;;;;5078421;27;88051;-53
2023/06/19 03:58:12;;;;;;;1.40;1.00;;;;;;;;;;5078422;27;88567;-54
2023/06/19 04:00:41;;;;;;;2.77;1.23;;;;;;;;;;5077980;27;89086;-53
2023/06/19 04:03:09;;;;;;;1.53;1.00;;;;;;;;;;5076343;27;89249;-53
2023/06/19 04:05:38;;;;;;;1.23;0.90;;;;;;;;;;5076107;27;88541;-52
2023/06/19 04:08:07;;;;;;;1.67;1.47;;;;;;;;;;5080270;27;89844;-54
2023/06/19 04:10:35;;;;;;;1.80;1.20;;;;;;;;;;5080444;27;89110;-52
2023/06/19 04:13:07;;;;;;;5.53;1.20;;;;;;;;;;5080153;27;88732;-52
2023/06/19 04:15:37;;;;;;;2.90;1.10;;;;;;;;;;5064700;27;87521;-52
2023/06/19 04:18:05;;;;;;;1.53;0.93;;;;;;;;;;5079084;27;88488;-54
2023/06/19 04:20:34;;;;;;;1.67;1.40;;;;;;;;;;5072812;27;88054;-52
2023/06/19 04:23:02;;;;;;;1.23;1.13;;;;;;;;;;5059488;27;88992;-53
2023/06/19 04:25:31;;;;;;;3.13;1.10;;;;;;;;;;5070446;27;87600;-53
2023/06/19 04:27:59;;;;;;;1.23;1.00;;;;;;;;;;5081843;27;89681;-53
2023/06/19 04:30:29;;;;;;;2.63;1.37;;;;;;;;;;5083526;27;89017;-52
2023/06/19 04:32:57;;;;;;;4.83;1.87;;;;;;;;;;5083746;27;88814;-53
2023/06/19 04:35:26;;;;;;;1.10;0.90;;;;;;;;;;5084407;27;87616;-53
2023/06/19 04:37:54;;;;;;;1.00;0.70;;;;;;;;;;5084116;27;88441;-53
2023/06/19 04:40:25;;;;;;;1.00;0.90;;;;;;;;;;5083873;27;89201;-52
2023/06/19 04:42:57;;;;;;;1.20;0.97;;;;;;;;;;5083143;27;87446;-52
2023/06/19 04:45:27;;;;;;;1.00;0.90;;;;;;;;;;5083695;27;87428;-53
2023/06/19 04:48:02;;;;;;;3.13;0.80;;;;;;;;;;5083425;27;88646;-52
2023/06/19 04:50:33;;;;;;;1.67;1.37;;;;;;;;;;5083428;27;89157;-53
2023/06/19 04:53:01;;;;;;;2.87;0.80;;;;;;;;;;5083325;27;88993;-52
2023/06/19 04:55:30;;;;;;;1.27;1.03;;;;;;;;;;5082896;27;87966;-53
2023/06/19 04:57:58;;;;;;;0.90;0.90;;;;;;;;;;5081924;27;88324;-52
2023/06/19 05:00:31;;;;;;;1.60;1.10;;;;;;;;;;5063552;27;91634;-53
2023/06/19 05:03:00;;;;;;;1.27;1.17;;;;;;;;;;5062473;27;88839;-53
2023/06/19 05:05:32;;;;;;;1.40;0.90;;;;;;;;;;5063092;27;87493;-56
2023/06/19 05:08:01;;;;;;;1.80;0.90;;;;;;;;;;5062322;27;89534;-53
2023/06/19 05:10:32;;;;;;;1.17;0.93;;;;;;;;;;5062507;27;89400;-53
2023/06/19 05:13:03;;;;;;;0.60;0.60;;;;;;;;;;5062715;27;88930;-53
2023/06/19 05:15:33;;;;;;;2.87;0.70;;;;;;;;;;5062719;27;87431;-52
2023/06/19 05:18:02;;;;;;;0.67;0.60;;;;;;;;;;5062358;27;89769;-52
2023/06/19 05:20:33;;;;;;;1.13;0.87;;;;;;;;;;5062194;27;89924;-53
2023/06/19 05:23:03;;;;;;;0.90;0.87;;;;;;;;;;5062913;27;89539;-53
2023/06/19 05:25:34;;;;;;;1.03;0.90;;;;;;;;;;5062606;27;87583;-52
2023/06/19 05:28:03;;;;;;;0.87;0.70;;;;;;;;;;5062812;27;89697;-54
2023/06/19 05:30:34;;;;;;;1.50;1.30;;;;;;;;;;5062915;27;89028;-53
2023/06/19 05:33:04;;;;;;;1.20;1.10;;;;;;;;;;5062083;27;88931;-53
2023/06/19 05:35:33;;;;;;;1.23;1.13;;;;;;;;;;5063048;27;87511;-54
2023/06/19 05:38:01;;;;;;;1.03;0.93;;;;;;;;;;5063489;27;89742;-53
2023/06/19 05:40:29;;;;;;;1.63;1.17;;;;;;;;;;5062941;27;89263;-52
2023/06/19 05:42:58;;;;;;;2.37;1.30;;;;;;;;;;5062086;27;88778;-53
2023/06/19 05:45:29;;;;;;;1.23;1.00;;;;;;;;;;5061563;27;88030;-53
2023/06/19 05:47:57;;;;;;;1.83;1.27;;;;;;;;;;5062326;27;88529;-53
2023/06/19 05:50:27;;;;;;;1.23;1.03;;;;;;;;;;5062348;27;89241;-53
2023/06/19 05:52:55;;;;;;;1.30;1.07;;;;;;;;;;5061683;27;88835;-52
2023/06/19 05:55:24;;;;;;;1.10;1.00;;;;;;;;;;5062103;27;87351;-53
2023/06/19 05:57:53;;;;;;;3.43;1.03;;;;;;;;;;5061745;27;90046;-52
2023/06/19 06:00:22;;;;;;;1.80;1.33;;;;;;;;;;5060858;27;88207;-52
2023/06/19 06:02:51;;;;;;;1.33;1.20;;;;;;;;;;5062364;27;87780;-53
2023/06/19 06:05:20;;;;;;;2.20;1.13;;;;;;;;;;5061733;27;87631;-52
2023/06/19 06:07:50;;;;;;;1.17;0.97;;;;;;;;;;5061946;27;89974;-53
2023/06/19 06:10:18;;;;;;;1.67;1.10;;;;;;;;;;5061072;27;90052;-53
2023/06/19 06:12:49;;;;;;;2.10;1.10;;;;;;;;;;5061665;27;89981;-52
2023/06/19 06:15:17;;;;;;;1.07;0.97;;;;;;;;;;5061806;27;87543;-53
2023/06/19 06:17:46;;;;;;;2.43;1.20;;;;;;;;;;5061582;27;89735;-53
2023/06/19 06:20:14;;;;;;;1.23;1.10;;;;;;;;;;5062087;27;89055;-53
2023/06/19 06:22:43;;;;;;;1.33;1.10;;;;;;;;;;5061948;27;88841;-52
2023/06/19 06:25:13;;;;;;;1.20;1.10;;;;;;;;;;5061759;27;87834;-52
2023/06/19 06:27:42;;;;;;;1.37;0.97;;;;;;;;;;5061569;27;89840;-52
2023/06/19 06:30:12;;;;;;;1.13;0.90;;;;;;;;;;5061063;27;88260;-52
2023/06/19 06:32:40;;;;;;;1.57;1.27;;;;;;;;;;5061421;27;88981;-52
2023/06/19 06:35:09;;;;;;;1.20;1.10;;;;;;;;;;5061236;27;87975;-53
2023/06/19 06:37:40;;;;;;;1.83;1.00;;;;;;;;;;5061209;27;89706;-52
2023/06/19 06:40:10;;;;;;;2.20;1.13;;;;;;;;;;5061573;27;87905;-52
2023/06/19 06:42:41;;;;;;;1.90;1.23;;;;;;;;;;5061660;27;88040;-52
2023/06/19 06:45:09;;;;;;;0.77;0.77;;;;;;;;;;5061462;27;87198;-53
2023/06/19 06:47:39;;;;;;;1.60;1.10;;;;;;;;;;5061424;27;89847;-53
2023/06/19 06:50:09;;;;;;;1.03;0.93;;;;;;;;;;5060463;27;89589;-52
2023/06/19 06:52:38;;;;;;;2.63;1.30;;;;;;;;;;5061069;27;88536;-53
2023/06/19 06:55:06;;;;;;;1.23;1.07;;;;;;;;;;5061699;27;87534;-53
2023/06/19 06:57:35;;;;;;;1.73;1.27;;;;;;;;;;5060638;27;89697;-52
2023/06/19 07:00:07;;;;;;;3.60;1.20;;;;;;;;;;5060621;27;90056;-53
2023/06/19 07:02:35;;;;;;;1.37;1.17;;;;;;;;;;5061179;27;89842;-53
2023/06/19 07:05:03;;;;;;;1.80;1.53;;;;;;;;;;5061579;27;87750;-53
2023/06/19 07:07:32;;;;;;;1.47;1.20;;;;;;;;;;5061070;27;89536;-53
2023/06/19 07:10:00;;;;;;;1.60;1.30;;;;;;;;;;5060711;27;89150;-52
2023/06/19 07:12:29;;;;;;;2.63;1.30;;;;;;;;;;5060921;27;88919;-53
2023/06/19 07:14:57;;;;;;;1.30;1.10;;;;;;;;;;5060849;27;87647;-52
2023/06/19 07:17:27;;;;;;;3.23;1.43;;;;;;;;;;5061216;27;88910;-53
2023/06/19 07:19:55;;;;;;;1.80;1.37;;;;;;;;;;5060913;27;89078;-53
2023/06/19 07:22:24;;;;;;;1.30;1.20;;;;;;;;;;5060822;27;88920;-53
2023/06/19 07:24:52;;;;;;;1.63;1.30;;;;;;;;;;5061089;27;88323;-53
2023/06/19 07:27:21;;;;;;;1.80;1.40;;;;;;;;;;5060564;27;89883;-53
2023/06/19 07:29:50;;;;;;;2.10;1.50;;;;;;;;;;5060139;27;88174;-52
2023/06/19 07:32:18;;;;;;;1.33;1.23;;;;;;;;;;5060825;27;87884;-53
2023/06/19 07:34:48;;;;;;;1.20;1.10;;;;;;;;;;5059936;27;87597;-53
2023/06/19 07:37:18;;;;;;;1.90;1.53;;;;;;;;;;5060410;27;88555;-53
2023/06/19 07:39:46;;;;;;;1.63;1.47;;;;;;;;;;5060117;27;89103;-53
2023/06/19 07:42:15;;;;;;;1.50;1.40;;;;;;;;;;5060268;27;88671;-53
2023/06/19 07:44:43;;;;;;;1.63;1.30;;;;;;;;;;5061269;27;87579;-53
2023/06/19 07:47:13;;;;;;;1.30;0.93;;;;;;;;;;5061672;27;89663;-53
2023/06/19 07:49:41;;;;;;;2.20;1.50;;;;;;;;;;5060925;27;89004;-53
2023/06/19 07:52:11;;;;;;;2.50;1.67;;;;;;;;;;5060409;27;89748;-52
2023/06/19 07:54:49;;;;;;;1.90;1.70;;;;;;;;;;5059562;27;87757;-53
2023/06/19 07:57:17;;;;;;;1.50;1.30;;;;;;;;;;5060891;27;89945;-53
2023/06/19 07:59:46;;;;;;;1.23;1.10;;;;;;;;;;5080517;27;89485;-52
2023/06/19 08:02:14;;;;;;;3.27;1.20;;;;;;;;;;5082190;27;88885;-52
2023/06/19 08:04:43;;;;;;;2.60;1.40;;;;;;;;;;5083949;27;87640;-52
2023/06/19 08:07:12;;;;;;;3.50;1.53;;;;;;;;;;5084466;27;88488;-52
2023/06/19 08:09:41;;;;;;;1.63;1.37;;;;;;;;;;5084327;27;88979;-53
2023/06/19 08:12:09;;;;;;;2.67;1.60;;;;;;;;;;5084105;27;88961;-52
2023/06/19 08:14:38;;;;;;;1.47;1.10;;;;;;;;;;5084157;27;87804;-52
2023/06/19 08:17:07;;;;;;;1.77;1.40;;;;;;;;;;5084376;27;90203;-53
2023/06/19 08:19:35;;;;;;;1.93;1.67;;;;;;;;;;5084122;27;88044;-52
2023/06/19 08:22:04;;;;;;;3.47;1.50;;;;;;;;;;5083768;27;88875;-52
2023/06/19 08:24:35;;;;;;;1.93;1.30;;;;;;;;;;5083951;27;87554;-52
2023/06/19 08:27:04;;;;;;;1.83;1.30;;;;;;;;;;5083410;27;88728;-51
2023/06/19 08:29:32;;;;;;;1.97;1.53;;;;;;;;;;5083226;27;89228;-52
2023/06/19 08:32:01;;;;;;;1.40;1.30;;;;;;;;;;5084023;27;88891;-52
2023/06/19 08:34:30;;;;;;;3.37;1.23;;;;;;;;;;5084198;27;87609;-53
2023/06/19 08:36:58;;;;;;;2.47;1.47;;;;;;;;;;5083276;27;88443;-52
2023/06/19 08:39:27;;;;;;;1.80;1.37;;;;;;;;;;5082701;27;90062;-53
2023/06/19 08:41:56;;;;;;;2.17;1.10;;;;;;;;;;5083131;27;89821;-52
2023/06/19 08:44:25;;;;;;;1.73;1.40;;;;;;;;;;5083323;27;87433;-52
2023/06/19 08:46:53;;;;;;;2.20;1.70;;;;;;;;;;5083255;27;89451;-52
2023/06/19 08:49:22;;;;;;;3.47;1.77;;;;;;;;;;5083980;27;89102;-52
2023/06/19 08:51:50;;;;;;;1.60;1.40;;;;;;;;;;5083636;27;88780;-53
2023/06/19 08:54:19;;;;;;;1.30;0.97;;;;;;;;;;5083000;27;87723;-53
2023/06/19 08:56:48;;;;;;;2.80;1.60;;;;;;;;;;5083154;27;89717;-52
2023/06/19 08:59:18;;;;;;;2.10;1.70;;;;;;;;;;5082607;27;89101;-52
2023/06/19 09:01:51;;;;;;;2.00;1.80;;;;;;;;;;5082885;27;89109;-52
2023/06/19 09:04:20;;;;;;;1.67;1.40;;;;;;;;;;5083519;27;87833;-52
2023/06/19 09:06:49;;;;;;;1.90;1.80;;;;;;;;;;5083376;27;88500;-53
2023/06/19 09:09:18;;;;;;;1.47;1.37;;;;;;;;;;5083229;27;89161;-53
2023/06/19 09:11:56;;;;;;;3.20;2.13;;;;;;;;;;5083166;27;88934;-52
2023/06/19 09:14:29;;;;;;;2.43;1.90;;;;;;;;;;5082674;27;87570;-53
2023/06/19 09:16:58;;;;;;;1.97;1.70;;;;;;;;;;5082811;27;89706;-52
2023/06/19 09:19:26;;;;;;;1.97;1.70;;;;;;;;;;5083353;27;89138;-53
2023/06/19 09:21:55;;;;;;;2.10;1.90;;;;;;;;;;5083413;27;87762;-53
2023/06/19 09:24:24;;;;;;;4.13;1.50;;;;;;;;;;5082603;27;87560;-52
2023/06/19 09:26:53;;;;;;;3.17;1.90;;;;;;;;;;5083203;27;89521;-53
2023/06/19 09:29:21;;;;;;;4.77;2.47;;;;;;;;;;5081801;27;90124;-51
2023/06/19 09:31:51;;;;;;;6.40;2.30;;;;;;;;;;5082629;27;90056;-51
2023/06/19 09:34:19;;;;;;;2.67;2.33;;;;;;;;;;5083294;27;87636;-53
2023/06/19 09:36:47;;;;;;;2.77;1.97;;;;;;;;;;5082667;27;89720;-52
2023/06/19 09:39:16;;;;;;;2.03;1.80;;;;;;;;;;5082475;27;88267;-52
2023/06/19 09:41:44;;;;;;;2.90;2.00;;;;;;;;;;5082466;27;89115;-52
2023/06/19 09:44:16;;;;;;;2.87;2.23;;;;;;;;;;5082549;27;87535;-52
2023/06/19 09:46:45;;;;;;;4.90;2.77;;;;;;;;;;5082747;27;89648;-52
2023/06/19 09:49:15;;;;;;;2.83;2.20;;;;;;;;;;5083465;27;89067;-53
2023/06/19 09:51:43;;;;;;;2.93;2.03;;;;;;;;;;5083183;27;88844;-53
2023/06/19 09:54:11;;;;;;;2.60;2.37;;;;;;;;;;5082445;27;88526;-52
2023/06/19 09:56:40;;;;;;;4.00;2.17;;;;;;;;;;5082441;27;88682;-52
2023/06/19 09:59:09;;;;;;;3.80;2.40;;;;;;;;;;5082728;27;89119;-53
2023/06/19 10:01:38;;;;;;;2.57;2.00;;;;;;;;;;5082331;27;88635;-52
2023/06/19 10:04:06;;;;;;;6.53;2.40;;;;;;;;;;5082932;27;87611;-52
2023/06/19 10:06:43;;;;;;;4.97;2.37;;;;;;;;;;5082222;27;89846;-53
2023/06/19 10:09:12;;;;;;;2.77;2.33;;;;;;;;;;5082581;27;89164;-52
2023/06/19 10:11:51;;;;;;;4.50;2.93;;;;;;;;;;5081759;27;88896;-52
2023/06/19 10:14:19;;;;;;;7.57;2.57;;;;;;;;;;5082568;27;87244;-51
2023/06/19 10:16:48;;;;;;;4.10;2.60;;;;;;;;;;5082294;27;89739;-51
2023/06/19 10:19:16;;;;;;;6.17;2.90;;;;;;;;;;5082026;27;87849;-51
2023/06/19 10:21:47;;;;;;;7.70;5.63;;;;;;;;;;5082393;27;89758;-51
2023/06/19 10:24:18;;;;;;;24.93;17.00;;;;;;;;;;5081921;27;87704;-52
2023/06/19 10:26:57;;;;;;;34.53;23.93;;;;;;;;;;5081458;27;89746;-52
2023/06/19 10:29:27;;;;;;;24.60;17.40;;;;;;;;;;5081064;27;87497;-52
2023/06/19 10:31:56;;;;;;;19.90;14.90;;;;;;;;;;5081257;27;89031;-52
2023/06/19 10:34:34;;;;;;;21.53;14.47;;;;;;;;;;5080533;27;87604;-52
2023/06/19 10:37:04;;;;;;;17.33;13.50;;;;;;;;;;5071152;27;89834;-51
2023/06/19 10:39:33;;;;;;;15.40;11.20;;;;;;;;;;5072599;27;89060;-51
2023/06/19 10:42:01;;;;;;;14.07;10.97;;;;;;;;;;5080764;27;87897;-51
2023/06/19 10:44:33;;;;;;;16.47;9.97;;;;;;;;;;5075501;27;88246;-51
2023/06/19 10:47:01;;;;;;;14.67;10.00;;;;;;;;;;5081223;27;89448;-51
2023/06/19 10:49:29;;;;;;;9.07;7.93;;;;;;;;;;5080859;27;89123;-50
2023/06/19 10:51:59;;;;;;;15.47;8.50;;;;;;;;;;5081000;27;88930;-51
2023/06/19 10:54:31;;;;;;;12.60;9.30;;;;;;;;;;5081564;27;87470;-51
2023/06/19 10:57:02;;;;;;;12.27;8.50;;;;;;;;;;5080882;27;90020;-51
2023/06/19 10:59:31;;;;;;;13.33;7.23;;;;;;;;;;5081383;27;89084;-52
2023/06/19 11:01:59;;;;;;;12.17;8.27;;;;;;;;;;5081425;27;88961;-51
2023/06/19 11:04:28;;;;;;;10.97;7.63;;;;;;;;;;5081554;27;87653;-51
2023/06/19 11:06:56;;;;;;;11.13;8.13;;;;;;;;;;5081015;27;89673;-51
2023/06/19 11:09:25;;;;;;;12.20;8.53;;;;;;;;;;5081213;27;90146;-52
2023/06/19 11:11:55;;;;;;;12.67;7.80;;;;;;;;;;5081810;27;90003;-52
2023/06/19 11:14:25;;;;;;;10.03;7.43;;;;;;;;;;5075601;27;89746;-52
2023/06/19 11:16:53;;;;;;;11.03;6.80;;;;;;;;;;5060534;27;88683;-51
2023/06/19 11:19:23;;;;;;;11.50;7.57;;;;;;;;;;5060519;27;88097;-51
2023/06/19 11:21:52;;;;;;;9.93;8.03;;;;;;;;;;5060892;27;89010;-51
2023/06/19 11:24:21;;;;;;;10.57;7.13;;;;;;;;;;5060597;27;87662;-51
2023/06/19 11:26:50;;;;;;;9.20;7.27;;;;;;;;;;5060733;27;88748;-51
2023/06/19 11:29:21;;;;;;;12.10;7.20;;;;;;;;;;5060502;27;88001;-52
2023/06/19 11:31:50;;;;;;;10.20;6.40;;;;;;;;;;5060269;27;87779;-51
2023/06/19 11:34:18;;;;;;;9.90;6.53;;;;;;;;;;5059946;27;87686;-52
2023/06/19 11:36:51;;;;;;;9.53;6.83;;;;;;;;;;5061016;27;89809;-51
2023/06/19 11:39:20;;;;;;;10.37;5.93;;;;;;;;;;5064451;27;88149;-52
2023/06/19 11:41:48;;;;;;;12.83;6.57;;;;;;;;;;5063515;27;88855;-52
2023/06/19 11:44:16;;;;;;;11.47;6.73;;;;;;;;;;5064368;27;87500;-52
2023/06/19 11:46:46;;;;;;;8.43;5.90;;;;;;;;;;5064283;27;88609;-52
2023/06/19 11:49:16;;;;;;;7.47;6.30;;;;;;;;;;5064025;27;89192;-52
2023/06/19 11:51:45;;;;;;;8.37;5.90;;;;;;;;;;5064540;27;87639;-52
2023/06/19 11:54:15;;;;;;;7.97;6.17;;;;;;;;;;5064444;27;87370;-52
2023/06/19 11:56:43;;;;;;;7.03;5.27;;;;;;;;;;5063925;27;88794;-52
2023/06/19 11:59:12;;;;;;;7.10;5.33;;;;;;;;;;5063461;27;88969;-52
2023/06/19 12:01:40;;;;;;;9.27;5.80;;;;;;;;;;5064253;27;89899;-52
2023/06/19 12:04:10;;;;;;;8.07;5.03;;;;;;;;;;5064168;27;87614;-52
2023/06/19 12:06:39;;;;;;;5.63;4.73;;;;;;;;;;5064025;27;88561;-52
2023/06/19 12:09:07;;;;;;;9.30;5.17;;;;;;;;;;5064156;27;89210;-52
2023/06/19 12:11:36;;;;;;;6.27;5.53;;;;;;;;;;5062607;27;88939;-52
2023/06/19 12:14:04;;;;;;;10.77;5.60;;;;;;;;;;5063764;27;87477;-52
2023/06/19 12:16:33;;;;;;;7.13;5.47;;;;;;;;;;5063895;27;88685;-51
2023/06/19 12:19:01;;;;;;;6.23;4.97;;;;;;;;;;5063229;27;88934;-52
2023/06/19 12:21:31;;;;;;;6.53;4.87;;;;;;;;;;5063754;27;89002;-52
2023/06/19 12:24:07;;;;;;;5.43;4.40;;;;;;;;;;5063235;27;87828;-52
2023/06/19 12:26:36;;;;;;;7.70;5.23;;;;;;;;;;5064651;27;89597;-52
2023/06/19 12:29:05;;;;;;;6.47;4.80;;;;;;;;;;5062924;27;88989;-51
2023/06/19 12:31:34;;;;;;;5.50;4.63;;;;;;;;;;5063298;27;88783;-52
2023/06/19 12:34:02;;;;;;;9.00;4.93;;;;;;;;;;5063955;27;87604;-51
2023/06/19 12:36:52;;;;;;;7.23;5.00;;;;;;;;;;5063570;27;87398;-51
2023/06/19 12:39:21;;;;;;;8.90;4.23;;;;;;;;;;5062446;27;89415;-51
2023/06/19 12:41:49;;;;;;;6.50;4.57;;;;;;;;;;5063498;27;87751;-52
2023/06/19 12:44:17;;;;;;;4.90;4.07;;;;;;;;;;5063678;27;87631;-52
2023/06/19 12:46:46;;;;;;;6.33;4.63;;;;;;;;;;5069319;27;88623;-52
2023/06/19 12:49:14;;;;;;;5.00;3.83;;;;;;;;;;5067150;27;88752;-53
2023/06/19 12:51:43;;;;;;;5.20;4.17;;;;;;;;;;5064217;27;89877;-52
2023/06/19 12:54:13;;;;;;;4.70;4.00;;;;;;;;;;5083297;27;87608;-52
2023/06/19 12:56:41;;;;;;;5.33;3.67;;;;;;;;;;5083198;27;89761;-52
2023/06/19 12:59:10;;;;;;;5.47;3.80;;;;;;;;;;5083291;27;89142;-52
2023/06/19 13:01:39;;;;;;;4.77;3.63;;;;;;;;;;5082351;27;87540;-51
2023/06/19 13:04:07;;;;;;;4.97;3.97;;;;;;;;;;5026650;27;87747;-52
2023/06/19 13:06:36;;;;;;;5.40;3.67;;;;;;;;;;5062717;27;89639;-52
2023/06/19 13:09:05;;;;;;;6.50;4.00;;;;;;;;;;5062578;27;89316;-53
2023/06/19 13:11:35;;;;;;;6.40;3.77;;;;;;;;;;5062213;27;88964;-52
2023/06/19 13:14:03;;;;;;;4.97;3.30;;;;;;;;;;5061747;27;87787;-52
2023/06/19 13:16:32;;;;;;;4.30;3.50;;;;;;;;;;5062105;27;89529;-51
2023/06/19 13:19:14;;;;;;;5.30;3.70;;;;;;;;;;5062155;27;89054;-51
2023/06/19 13:21:42;;;;;;;5.70;3.70;;;;;;;;;;5061834;27;88846;-51
2023/06/19 13:24:11;;;;;;;4.67;3.70;;;;;;;;;;5062445;27;87410;-51
2023/06/19 13:26:41;;;;;;;5.63;3.47;;;;;;;;;;5061702;27;88526;-51
2023/06/19 13:29:09;;;;;;;5.80;4.30;;;;;;;;;;5062350;27;88273;-52
2023/06/19 13:31:38;;;;;;;3.27;2.97;;;;;;;;;;5062213;27;89003;-52
2023/06/19 13:34:06;;;;;;;3.70;2.73;;;;;;;;;;5062333;27;87387;-53
2023/06/19 13:36:35;;;;;;;5.13;3.07;;;;;;;;;;5061935;27;89756;-52
2023/06/19 13:39:04;;;;;;;7.30;3.17;;;;;;;;;;5061432;27;89923;-51
2023/06/19 13:41:34;;;;;;;3.40;2.83;;;;;;;;;;5072796;27;89785;-52
2023/06/19 13:44:04;;;;;;;3.77;2.77;;;;;;;;;;5082875;27;87507;-51
2023/06/19 13:46:32;;;;;;;3.27;2.50;;;;;;;;;;5082694;27;89871;-51
2023/06/19 13:49:00;;;;;;;3.77;2.70;;;;;;;;;;5082395;27;88077;-51
2023/06/19 13:51:29;;;;;;;5.17;3.03;;;;;;;;;;5082550;27;87931;-53
2023/06/19 13:53:57;;;;;;;2.87;2.50;;;;;;;;;;5082190;27;87641;-51
2023/06/19 13:56:26;;;;;;;2.37;2.17;;;;;;;;;;5082456;27;88533;-52
2023/06/19 13:58:54;;;;;;;3.17;2.60;;;;;;;;;;5082121;27;89243;-51
2023/06/19 14:01:25;;;;;;;3.03;2.43;;;;;;;;;;5081257;27;87527;-51
2023/06/19 14:03:53;;;;;;;3.37;2.63;;;;;;;;;;5081847;27;87848;-51
2023/06/19 14:06:22;;;;;;;3.40;2.50;;;;;;;;;;5082690;27;89818;-51
2023/06/19 14:08:50;;;;;;;2.37;2.17;;;;;;;;;;5082538;27;89153;-52
2023/06/19 14:11:19;;;;;;;2.97;2.37;;;;;;;;;;5082656;27;88517;-52
2023/06/19 14:13:48;;;;;;;2.40;2.20;;;;;;;;;;5082317;27;87641;-52
2023/06/19 14:16:16;;;;;;;2.73;2.03;;;;;;;;;;5081773;27;88739;-51
2023/06/19 14:18:46;;;;;;;2.90;2.50;;;;;;;;;;5081478;27;87851;-51
2023/06/19 14:21:15;;;;;;;3.73;2.47;;;;;;;;;;5081833;27;87547;-51
2023/06/19 14:23:44;;;;;;;2.70;2.10;;;;;;;;;;5081970;27;87576;-51
2023/06/19 14:26:12;;;;;;;2.40;2.20;;;;;;;;;;5081698;27;89649;-52
2023/06/19 14:28:41;;;;;;;2.77;2.47;;;;;;;;;;5081305;27;90060;-51
2023/06/19 14:31:09;;;;;;;2.23;2.03;;;;;;;;;;5081855;27;88525;-52
2023/06/19 14:33:37;;;;;;;3.77;1.60;;;;;;;;;;5082396;27;87605;-51
2023/06/19 14:36:07;;;;;;;2.03;1.83;;;;;;;;;;5082025;27;89925;-52
2023/06/19 14:38:36;;;;;;;3.23;1.83;;;;;;;;;;5081964;27;89161;-52
2023/06/19 14:41:04;;;;;;;2.37;1.57;;;;;;;;;;5082105;27;88838;-51
2023/06/19 14:43:34;;;;;;;1.97;1.57;;;;;;;;;;5082058;27;87208;-51
2023/06/19 14:46:03;;;;;;;2.27;1.97;;;;;;;;;;5081811;27;89907;-51
2023/06/19 14:48:32;;;;;;;2.57;1.80;;;;;;;;;;5082512;27;88792;-52
2023/06/19 14:51:02;;;;;;;2.07;1.60;;;;;;;;;;5083000;27;89090;-52
2023/06/19 14:53:32;;;;;;;3.23;2.00;;;;;;;;;;5071664;27;87908;-52